Time;durP1;ratioP1;P1;durP2;ratioP2;P2;SDS_P1;SDS_P2;PMS_P1;PMS_P2;Temp;Humidity;BMP_temperature;BMP_pressure;BME280_temperature;BME280_humidity;BME280_pressure;Samples;Min_cycle;Max_cycle;Signal;HPM_P1;HPM_P2
2021/12/19 00:01:34;;;;;;;25.23;13.43;;;;;;;-1.84;79.00;97598.88;10286676;28;98852;-68
2021/12/19 00:12:00;;;;;;;92.38;49.15;;;;;;;-1.71;79.86;97581.47;10201229;28;98595;-68
2021/12/19 00:17:05;;;;;;;41.22;23.08;;;;;;;-1.66;79.89;97582.19;10201155;28;97226;-68
2021/12/19 00:22:08;;;;;;;56.83;30.35;;;;;;;-1.59;79.08;97573.44;10197987;28;99001;-68
2021/12/19 00:27:11;;;;;;;70.68;31.40;;;;;;;-1.51;79.80;97563.00;10193991;28;98794;-68
2021/12/19 00:32:15;;;;;;;58.22;26.33;;;;;;;-1.52;78.92;97574.13;10200273;28;97582;-68
2021/12/19 00:37:19;;;;;;;39.03;21.38;;;;;;;-1.50;78.88;97570.66;10204837;28;98029;-68
2021/12/19 00:42:30;;;;;;;36.03;19.63;;;;;;;-1.44;79.92;97561.13;10205013;28;97263;-68
2021/12/19 00:47:34;;;;;;;39.55;21.50;;;;;;;-1.39;80.04;97549.88;10245768;28;96923;-67
2021/12/19 00:52:37;;;;;;;35.65;18.15;;;;;;;-1.28;79.41;97554.69;10289742;28;97845;-67
2021/12/19 00:57:40;;;;;;;32.83;19.05;;;;;;;-1.34;80.09;97557.44;10289605;28;98376;-67
2021/12/19 01:02:45;;;;;;;34.78;19.25;;;;;;;-1.33;78.97;97553.97;10287020;28;96811;-69
2021/12/19 01:07:48;;;;;;;39.22;20.25;;;;;;;-1.30;80.22;97548.75;10297618;28;97666;-68
2021/12/19 01:12:51;;;;;;;37.67;18.77;;;;;;;-1.23;80.30;97550.28;10295613;28;100159;-68
2021/12/19 01:17:55;;;;;;;37.88;20.73;;;;;;;-1.20;79.18;97550.19;10285600;28;97613;-68
2021/12/19 01:22:58;;;;;;;42.70;22.25;;;;;;;-1.10;79.38;97555.88;10290526;28;96955;-68
2021/12/19 01:28:01;;;;;;;49.08;23.65;;;;;;;-0.99;79.73;97555.59;10309096;28;98348;-67
2021/12/19 01:33:06;;;;;;;39.17;20.48;;;;;;;-0.97;79.79;97561.53;10290738;28;96769;-67
2021/12/19 01:38:09;;;;;;;36.67;19.03;;;;;;;-0.99;80.28;97558.16;10288102;28;97085;-68
2021/12/19 01:43:12;;;;;;;50.00;25.67;;;;;;;-0.99;80.67;97553.03;10290334;28;98241;-68
2021/12/19 01:48:16;;;;;;;51.95;26.48;;;;;;;-0.89;79.70;97549.31;10292228;28;98429;-69
2021/12/19 01:53:20;;;;;;;47.83;24.80;;;;;;;-0.83;80.81;97541.41;10286395;28;98991;-69
2021/12/19 01:58:22;;;;;;;45.63;24.17;;;;;;;-0.76;80.71;97545.47;10286526;28;99375;-68
2021/12/19 02:03:27;;;;;;;46.13;23.75;;;;;;;-0.72;80.55;97547.09;10282811;28;97473;-68
2021/12/19 02:08:30;;;;;;;45.97;25.37;;;;;;;-0.68;79.94;97550.41;10292123;28;97955;-68
2021/12/19 02:13:33;;;;;;;40.15;21.20;;;;;;;-0.64;80.27;97544.28;10295194;28;98961;-69
2021/12/19 02:18:38;;;;;;;45.97;23.92;;;;;;;-0.59;80.18;97542.41;10290387;28;96913;-68
2021/12/19 02:23:42;;;;;;;42.85;22.02;;;;;;;-0.56;80.86;97536.34;10285994;28;98616;-67
2021/12/19 02:28:45;;;;;;;44.35;22.17;;;;;;;-0.50;79.80;97541.28;10288116;28;98635;-68
2021/12/19 02:34:00;;;;;;;42.63;22.20;;;;;;;-0.46;80.29;97532.59;10288769;28;99066;-68
2021/12/19 02:39:21;;;;;;;;;;;;;;;-0.39;80.11;97533.25;10296326;28;98673;-68
2021/12/19 02:49:49;;;;;;;;;;;;;;;-0.40;80.44;97531.59;10291751;28;98735;-68
2021/12/19 02:54:53;;;;;;;45.75;22.95;;;;;;;-0.44;80.29;97530.84;10286894;28;97013;-68
2021/12/19 02:59:56;;;;;;;44.40;23.38;;;;;;;-0.43;80.20;97527.38;10292512;28;97900;-68
2021/12/19 03:05:01;;;;;;;43.72;22.85;;;;;;;-0.40;79.54;97527.28;10299929;28;96815;-66
2021/12/19 03:10:28;;;;;;;46.80;24.42;;;;;;;-0.40;79.66;97517.00;10294812;28;97753;-68
2021/12/19 03:20:52;;;;;;;42.95;22.08;;;;;;;-0.42;80.43;97503.38;10286534;28;97608;-68
2021/12/19 03:25:56;;;;;;;43.28;22.75;;;;;;;-0.40;79.57;97496.47;10284428;28;98357;-68
2021/12/19 03:30:59;;;;;;;41.15;21.88;;;;;;;-0.36;79.59;97487.75;10282224;28;98121;-68
2021/12/19 03:36:02;;;;;;;39.60;20.15;;;;;;;-0.36;79.96;97487.75;10288461;28;98022;-68
2021/12/19 03:41:15;;;;;;;40.80;22.10;;;;;;;-0.27;79.71;97476.34;10283155;28;98779;-68
2021/12/19 03:46:18;;;;;;;39.08;20.02;;;;;;;-0.26;80.09;97477.22;10287646;28;96941;-68
2021/12/19 03:51:20;;;;;;;35.00;19.40;;;;;;;-0.23;79.06;97471.94;10288558;28;98465;-66
2021/12/19 03:56:25;;;;;;;37.67;21.13;;;;;;;-0.27;79.18;97460.13;10291215;28;96806;-68
2021/12/19 04:01:28;;;;;;;39.53;21.02;;;;;;;-0.25;80.01;97461.75;10284979;28;99438;-68
2021/12/19 04:06:31;;;;;;;43.30;21.23;;;;;;;-0.19;79.26;97465.84;10287785;28;98563;-67
2021/12/19 04:11:35;;;;;;;41.75;21.02;;;;;;;-0.16;79.05;97451.16;10282016;28;98766;-68
2021/12/19 04:16:42;;;;;;;33.05;18.50;;;;;;;-0.13;79.15;97463.06;10288609;28;98492;-67
2021/12/19 04:21:45;;;;;;;43.03;23.33;;;;;;;-0.08;79.41;97463.72;10282394;28;96811;-68
2021/12/19 04:26:49;;;;;;;40.72;21.45;;;;;;;-0.08;79.23;97468.88;10279298;28;96841;-67
2021/12/19 04:31:53;;;;;;;42.67;22.50;;;;;;;-0.08;79.92;97468.88;10280395;28;97818;-67
2021/12/19 04:37:02;;;;;;;40.70;22.88;;;;;;;-0.07;79.41;97462.84;10294949;28;100306;-68
2021/12/19 04:43:06;;;;;;;43.95;22.95;;;;;;;-0.02;79.37;97460.13;10285439;28;96853;-68
2021/12/19 04:53:22;;;;;;;41.90;22.63;;;;;;;0.01;79.15;97452.31;10195879;28;98075;-67
2021/12/19 04:58:53;;;;;;;39.28;20.05;;;;;;;0.02;79.73;97436.00;10194213;28;98852;-68
2021/12/19 05:04:08;;;;;;;41.50;22.08;;;;;;;-0.02;79.80;97443.00;10194402;28;99105;-67
2021/12/19 05:14:49;;;;;;;48.00;24.42;;;;;;;-0.02;79.54;97443.00;10048428;28;99098;-68
2021/12/19 05:20:05;;;;;;;54.92;25.08;;;;;;;-0.05;79.33;97435.38;10041822;28;97042;-68
2021/12/19 05:25:14;;;;;;;44.55;23.75;;;;;;;-0.11;79.78;97434.75;10047719;28;98895;-67
2021/12/19 05:30:19;;;;;;;43.03;22.70;;;;;;;-0.09;79.90;97438.97;10129594;28;98805;-67
2021/12/19 05:35:31;;;;;;;46.85;24.52;;;;;;;-0.03;79.41;97433.59;10167641;28;99056;-67
2021/12/19 05:45:56;;;;;;;49.03;25.00;;;;;;;-0.06;80.17;97423.44;10183884;28;96997;-67
2021/12/19 05:50:59;;;;;;;46.28;23.60;;;;;;;-0.04;79.67;97416.53;10287672;28;99167;-68
2021/12/19 05:56:03;;;;;;;44.47;23.95;;;;;;;0.01;79.67;97417.19;10293658;28;98866;-68
2021/12/19 06:01:07;;;;;;;45.00;24.17;;;;;;;0.02;79.69;97418.03;10288311;28;98982;-67
2021/12/19 06:06:10;;;;;;;53.23;27.03;;;;;;;0.09;80.18;97426.38;10290284;28;98734;-67
2021/12/19 06:11:14;;;;;;;47.80;24.55;;;;;;;0.08;79.59;97410.13;10291758;28;97788;-67
2021/12/19 06:16:19;;;;;;;52.28;25.80;;;;;;;-0.09;79.65;97414.97;10300033;28;96925;-67
2021/12/19 06:21:21;;;;;;;49.65;24.98;;;;;;;-0.08;79.70;97396.13;10296624;28;97786;-67
2021/12/19 06:26:24;;;;;;;46.05;25.70;;;;;;;0.02;80.40;97395.72;10291134;28;97695;-67
2021/12/19 06:31:28;;;;;;;51.78;25.23;;;;;;;0.11;80.19;97386.03;10292552;28;98847;-67
2021/12/19 06:36:31;;;;;;;52.22;26.58;;;;;;;0.12;80.01;97380.84;10284662;28;97746;-66
2021/12/19 06:41:35;;;;;;;39.13;21.55;;;;;;;0.13;79.63;97381.66;10287462;28;96939;-67
2021/12/19 06:46:39;;;;;;;48.78;24.90;;;;;;;0.17;79.66;97378.94;10288514;28;99213;-67
2021/12/19 06:51:42;;;;;;;48.28;25.23;;;;;;;0.20;79.32;97377.97;10284586;28;98664;-67
2021/12/19 06:56:45;;;;;;;49.85;24.98;;;;;;;0.20;79.36;97370.25;10288936;28;98653;-67
2021/12/19 07:01:52;;;;;;;43.55;24.10;;;;;;;0.23;79.36;97357.31;10286965;28;97733;-67
2021/12/19 07:06:55;;;;;;;47.45;24.77;;;;;;;0.22;79.51;97346.22;10294923;28;98563;-67
2021/12/19 07:11:58;;;;;;;52.10;25.58;;;;;;;0.24;80.00;97359.00;10308897;28;96986;-67
2021/12/19 07:17:02;;;;;;;51.95;26.05;;;;;;;0.21;80.08;97357.38;10289105;28;97076;-67
2021/12/19 07:22:05;;;;;;;54.63;28.88;;;;;;;0.26;80.00;97372.63;10287753;28;96804;-67
2021/12/19 07:27:08;;;;;;;52.10;27.52;;;;;;;0.28;79.35;97360.56;10286728;28;98359;-67
2021/12/19 07:32:12;;;;;;;43.90;23.88;;;;;;;0.28;79.94;97355.41;10284223;28;100639;-66
2021/12/19 07:37:15;;;;;;;43.42;24.50;;;;;;;0.27;79.87;97364.00;10284000;28;98614;-66
2021/12/19 07:42:18;;;;;;;48.28;24.70;;;;;;;0.28;79.78;97355.41;10291414;28;97598;-67
2021/12/19 07:47:22;;;;;;;45.38;23.67;;;;;;;0.09;79.92;97354.41;10278083;28;98068;-67
2021/12/19 07:52:25;;;;;;;48.33;24.40;;;;;;;0.00;79.52;97346.16;10285186;28;98516;-67
2021/12/19 07:57:28;;;;;;;44.88;22.92;;;;;;;-0.12;80.38;97341.44;10279555;28;98043;-67
2021/12/19 08:02:33;;;;;;;46.03;23.05;;;;;;;-0.12;80.11;97341.44;10280506;28;97643;-67
2021/12/19 08:07:38;;;;;;;45.13;22.60;;;;;;;-0.02;79.85;97337.66;10290614;28;96888;-67
2021/12/19 08:12:42;;;;;;;49.67;24.10;;;;;;;0.05;79.79;97339.09;10289759;28;97176;-66
2021/12/19 08:17:47;;;;;;;45.47;23.27;;;;;;;0.02;80.01;97336.66;10278719;28;97798;-66
2021/12/19 08:22:51;;;;;;;47.95;24.83;;;;;;;0.11;80.22;97327.75;10288254;28;98762;-67
2021/12/19 08:27:54;;;;;;;49.20;25.20;;;;;;;0.09;80.04;97328.72;10294710;28;96935;-67
2021/12/19 08:32:59;;;;;;;46.97;24.85;;;;;;;0.04;80.26;97331.44;10282763;28;98587;-67
2021/12/19 08:38:02;;;;;;;47.90;24.60;;;;;;;0.13;79.83;97330.28;10291842;28;97632;-67
2021/12/19 08:43:06;;;;;;;45.78;23.48;;;;;;;0.22;80.04;97327.38;10295083;28;96872;-66
2021/12/19 08:48:10;;;;;;;48.53;24.13;;;;;;;0.20;80.03;97322.31;10293882;28;98760;-66
2021/12/19 08:53:13;;;;;;;53.00;27.15;;;;;;;0.10;79.36;97320.09;10292435;28;99330;-67
2021/12/19 08:58:17;;;;;;;49.58;25.80;;;;;;;-0.01;79.79;97318.78;10305782;28;98841;-67
2021/12/19 09:03:21;;;;;;;54.67;26.20;;;;;;;-0.03;80.52;97318.00;10298616;28;96951;-66
2021/12/19 09:08:24;;;;;;;53.38;24.80;;;;;;;-0.09;79.90;97315.66;10302803;28;96794;-66
2021/12/19 09:13:27;;;;;;;48.45;24.85;;;;;;;-0.09;79.87;97315.66;10297246;28;96960;-67
2021/12/19 09:18:32;;;;;;;42.38;22.27;;;;;;;-0.15;79.55;97316.72;10297450;28;97690;-67
2021/12/19 09:23:39;;;;;;;49.85;24.35;;;;;;;-0.12;80.25;97314.94;10298519;28;96924;-66
2021/12/19 09:28:44;;;;;;;44.58;22.48;;;;;;;-0.04;79.91;97325.75;10299544;28;96969;-66
2021/12/19 09:33:48;;;;;;;45.80;23.85;;;;;;;0.05;79.96;97328.84;10294287;28;99127;-67
2021/12/19 09:38:52;;;;;;;50.17;25.83;;;;;;;0.12;79.21;97333.75;10294921;28;96868;-66
2021/12/19 09:43:58;;;;;;;48.33;24.00;;;;;;;0.19;79.75;97327.50;10297631;28;97728;-66
2021/12/19 09:49:07;;;;;;;46.95;23.42;;;;;;;0.20;79.61;97329.16;10292242;28;96805;-67
2021/12/19 09:54:11;;;;;;;45.17;22.73;;;;;;;0.13;79.22;97335.41;10292251;28;99410;-66
2021/12/19 09:59:19;;;;;;;47.55;24.27;;;;;;;0.23;78.95;97326.47;10293037;28;97110;-66
2021/12/19 10:04:30;;;;;;;47.42;23.58;;;;;;;0.14;79.49;97319.13;10292306;28;97971;-66
2021/12/19 10:09:33;;;;;;;46.05;24.05;;;;;;;0.24;79.21;97315.31;10289967;28;96923;-66
2021/12/19 10:14:38;;;;;;;42.92;22.35;;;;;;;0.30;79.25;97320.19;10288990;28;96902;-66
2021/12/19 10:19:47;;;;;;;47.85;24.05;;;;;;;0.24;79.47;97307.59;10294327;28;100548;-66
2021/12/19 10:24:50;;;;;;;44.13;22.38;;;;;;;0.37;79.34;97300.25;10293432;28;98208;-66
2021/12/19 10:29:53;;;;;;;44.33;22.80;;;;;;;0.55;79.04;97296.13;10293356;28;96855;-66
2021/12/19 10:35:18;;;;;;;38.55;20.65;;;;;;;0.72;78.83;97291.19;10301788;28;96943;-66
2021/12/19 10:40:22;;;;;;;;;;;;;;;0.89;78.93;97287.91;10290781;28;96847;-66
2021/12/19 10:45:33;;;;;;;39.92;21.35;;;;;;;0.99;78.41;97275.50;10290761;28;99254;-66
2021/12/19 10:50:46;;;;;;;42.97;22.17;;;;;;;1.04;78.55;97273.56;10292331;28;96960;-66
2021/12/19 10:55:50;;;;;;;40.47;22.08;;;;;;;1.12;78.71;97263.81;10292063;28;98652;-66
2021/12/19 11:01:04;;;;;;;43.22;22.38;;;;;;;1.25;78.18;97264.13;10285491;28;97563;-66
2021/12/19 11:06:17;;;;;;;37.70;20.88;;;;;;;1.27;78.27;97253.75;10288611;28;98693;-66
2021/12/19 11:11:39;;;;;;;45.33;22.80;;;;;;;1.35;78.13;97246.56;10293260;28;96821;-66
2021/12/19 11:16:43;;;;;;;43.00;23.38;;;;;;;1.36;77.82;97237.91;10290549;28;96743;-66
2021/12/19 11:21:47;;;;;;;38.85;22.40;;;;;;;1.41;77.66;97220.53;10291916;28;98840;-66
2021/12/19 11:26:53;;;;;;;36.95;20.00;;;;;;;1.46;77.33;97218.59;10295667;28;96937;-66
2021/12/19 11:31:59;;;;;;;36.03;19.83;;;;;;;1.54;77.35;97211.38;10295513;28;99861;-66
2021/12/19 11:37:10;;;;;;;36.08;20.13;;;;;;;1.49;76.49;97205.56;10287461;28;98375;-66
2021/12/19 11:42:15;;;;;;;38.00;19.80;;;;;;;1.47;76.81;97191.94;10287583;28;97513;-66
2021/12/19 11:47:37;;;;;;;36.45;20.23;;;;;;;1.51;76.64;97183.16;10295480;28;96972;-66
2021/12/19 11:52:42;;;;;;;35.90;20.08;;;;;;;1.48;76.18;97174.75;10294867;28;96738;-66
2021/12/19 11:58:23;;;;;;;35.60;19.27;;;;;;;1.52;76.24;97161.66;10292794;28;97247;-66
2021/12/19 12:03:46;;;;;;;34.60;18.70;;;;;;;1.49;75.57;97154.06;10295938;28;97361;-67
2021/12/19 12:09:16;;;;;;;35.70;18.77;;;;;;;1.64;75.82;97141.41;10290305;28;97161;-67
2021/12/19 12:14:26;;;;;;;32.80;18.25;;;;;;;1.73;75.67;97131.50;10280758;28;96937;-66
2021/12/19 12:19:41;;;;;;;33.20;18.52;;;;;;;1.69;75.74;97116.25;10291720;28;96877;-66
2021/12/19 12:25:09;;;;;;;34.67;18.92;;;;;;;1.73;75.07;97110.09;10295829;28;97122;-66
2021/12/19 12:30:16;;;;;;;36.20;18.73;;;;;;;1.48;75.10;97106.03;10296678;28;100281;-67
2021/12/19 12:35:20;;;;;;;30.15;17.02;;;;;;;1.09;75.26;97094.09;10304254;28;96739;-66
2021/12/19 12:40:29;;;;;;;33.97;18.98;;;;;;;0.98;75.16;97079.13;10300151;28;98686;-66
2021/12/19 12:45:50;;;;;;;36.60;19.30;;;;;;;0.94;75.47;97087.03;10295278;28;97315;-66
2021/12/19 12:50:53;;;;;;;31.95;17.63;;;;;;;0.98;75.16;97073.13;10289067;28;97788;-66
2021/12/19 12:56:01;;;;;;;39.20;21.08;;;;;;;0.98;74.73;97070.56;10291734;28;98373;-66
2021/12/19 13:01:21;;;;;;;36.83;20.27;;;;;;;1.10;74.40;97057.13;10293999;28;97661;-66
2021/12/19 13:06:59;;;;;;;36.17;19.23;;;;;;;1.05;74.25;97043.66;10283225;28;98693;-66
2021/12/19 13:12:07;;;;;;;34.22;18.02;;;;;;;1.02;74.53;97030.09;10237984;28;96996;-66
2021/12/19 13:17:13;;;;;;;35.70;19.33;;;;;;;1.18;74.36;97034.47;10241458;28;99056;-65
2021/12/19 13:22:25;;;;;;;35.45;19.25;;;;;;;1.26;74.02;97025.56;10250928;28;97771;-66
2021/12/19 13:27:30;;;;;;;33.88;17.85;;;;;;;1.02;74.20;97018.06;10245790;28;97314;-66
2021/12/19 13:32:37;;;;;;;39.00;19.85;;;;;;;1.15;74.79;97018.34;10255622;28;98682;-66
2021/12/19 13:37:48;;;;;;;37.00;19.63;;;;;;;0.97;74.55;97004.59;10248291;28;97021;-65
2021/12/19 13:42:54;;;;;;;35.85;19.23;;;;;;;1.01;74.55;97011.25;10281798;28;96971;-67
2021/12/19 13:48:00;;;;;;;34.55;18.40;;;;;;;1.00;74.46;97004.47;10282925;28;97781;-66
2021/12/19 13:53:03;;;;;;;35.72;19.75;;;;;;;0.99;74.22;96993.31;10289789;28;97754;-66
2021/12/19 13:58:08;;;;;;;35.60;20.00;;;;;;;0.94;74.25;96984.13;10288209;28;96873;-65
2021/12/19 14:03:14;;;;;;;36.33;18.60;;;;;;;0.91;74.23;96984.28;10288708;28;98775;-66
2021/12/19 14:08:24;;;;;;;35.10;18.88;;;;;;;0.91;74.67;96981.69;10302180;28;97201;-66
2021/12/19 14:13:31;;;;;;;37.65;20.13;;;;;;;1.05;74.44;96981.88;10294124;28;97067;-66
2021/12/19 14:18:41;;;;;;;41.55;20.27;;;;;;;0.90;74.12;96983.44;10302656;28;98477;-66
2021/12/19 14:23:43;;;;;;;36.97;19.65;;;;;;;0.75;74.50;96987.53;10304972;28;98700;-66
2021/12/19 14:28:49;;;;;;;39.10;19.70;;;;;;;0.68;74.42;96978.44;10312212;28;98796;-66
2021/12/19 14:33:55;;;;;;;34.38;18.98;;;;;;;0.63;74.63;96982.94;10306326;28;98436;-66
2021/12/19 14:39:00;;;;;;;34.78;18.48;;;;;;;0.53;74.72;96971.41;10290504;28;97987;-66
2021/12/19 14:44:18;;;;;;;40.08;20.90;;;;;;;0.37;74.58;96969.50;10293051;28;97822;-66
2021/12/19 14:49:22;;;;;;;41.85;20.33;;;;;;;0.54;74.43;96966.19;10303865;28;96816;-66
2021/12/19 14:54:26;;;;;;;40.72;20.52;;;;;;;0.59;74.06;96966.81;10304440;28;97487;-67
2021/12/19 14:59:30;;;;;;;38.07;20.37;;;;;;;0.65;74.46;96968.28;10317067;28;103524;-66
2021/12/19 15:04:34;;;;;;;37.72;18.38;;;;;;;0.42;74.81;96957.28;10310806;28;97385;-66
2021/12/19 15:09:37;;;;;;;40.00;20.27;;;;;;;0.26;74.81;96951.16;10296465;28;97898;-66
2021/12/19 15:14:40;;;;;;;35.65;18.27;;;;;;;0.28;74.97;96939.06;10302207;28;97248;-66
2021/12/19 15:19:44;;;;;;;37.70;19.17;;;;;;;0.08;74.56;96941.66;10312977;28;97622;-65
2021/12/19 15:24:47;;;;;;;36.17;19.07;;;;;;;-0.03;75.00;96940.38;10292693;28;97836;-66
2021/12/19 15:29:50;;;;;;;37.72;20.33;;;;;;;-0.11;75.67;96932.19;10293871;28;96903;-66
2021/12/19 15:34:54;;;;;;;40.88;20.13;;;;;;;-0.21;75.87;96928.34;10290478;28;99498;-66
2021/12/19 15:39:57;;;;;;;41.85;20.10;;;;;;;-0.24;75.94;96928.47;10283566;28;98751;-66
2021/12/19 15:45:00;;;;;;;38.67;19.83;;;;;;;-0.27;75.93;96914.00;10289272;28;98836;-66
2021/12/19 15:50:06;;;;;;;40.80;20.10;;;;;;;-0.26;75.40;96907.97;10290526;28;98789;-66
2021/12/19 15:55:10;;;;;;;42.92;20.45;;;;;;;-0.23;75.10;96907.00;10292182;28;96954;-66
2021/12/19 16:00:18;;;;;;;39.05;19.92;;;;;;;-0.25;75.91;96903.69;10288526;28;101333;-66
2021/12/19 16:05:23;;;;;;;39.22;20.23;;;;;;;-0.27;76.03;96908.03;10289790;28;97363;-66
2021/12/19 16:10:26;;;;;;;45.70;21.25;;;;;;;-0.27;76.23;96905.47;10284751;28;98279;-66
2021/12/19 16:15:29;;;;;;;41.92;21.02;;;;;;;-0.27;75.47;96898.59;10295759;28;96925;-67
2021/12/19 16:20:33;;;;;;;44.20;21.02;;;;;;;-0.23;75.28;96901.88;10300370;28;97069;-66
2021/12/19 16:25:36;;;;;;;43.25;22.48;;;;;;;-0.22;75.91;96894.09;10290096;28;98430;-66
2021/12/19 16:30:40;;;;;;;41.83;20.63;;;;;;;-0.29;75.67;96891.88;10296256;28;97321;-66
2021/12/19 16:35:44;;;;;;;42.38;21.27;;;;;;;-0.35;75.88;96896.38;10282173;28;97655;-66
2021/12/19 16:40:49;;;;;;;44.65;21.45;;;;;;;-0.34;75.97;96887.78;10295282;28;97546;-66
2021/12/19 16:45:53;;;;;;;43.75;21.42;;;;;;;-0.38;76.48;96886.22;10293668;28;99882;-66
2021/12/19 16:50:59;;;;;;;46.22;21.15;;;;;;;-0.42;76.24;96882.13;10295298;28;98851;-66
2021/12/19 16:56:03;;;;;;;40.03;19.55;;;;;;;-0.39;77.07;96882.00;10313935;28;97739;-66
2021/12/19 17:01:06;;;;;;;41.33;20.13;;;;;;;-0.35;76.33;96883.53;10300271;28;98056;-66
2021/12/19 17:06:10;;;;;;;41.55;20.13;;;;;;;-0.40;76.35;96895.72;10307661;28;99076;-66
2021/12/19 17:11:14;;;;;;;41.22;21.02;;;;;;;-0.54;77.05;96892.91;10296101;28;96992;-66
2021/12/19 17:16:17;;;;;;;47.90;23.02;;;;;;;-0.63;77.10;96885.56;10301066;28;98675;-66
2021/12/19 17:21:21;;;;;;;43.25;21.83;;;;;;;-0.72;77.17;96890.22;10297424;28;96912;-66
2021/12/19 17:26:24;;;;;;;43.75;22.13;;;;;;;-0.79;77.88;96878.53;10307849;28;97244;-65
2021/12/19 17:31:28;;;;;;;45.67;21.27;;;;;;;-0.79;77.50;96872.53;10305050;28;96849;-66
2021/12/19 17:36:32;;;;;;;45.30;22.65;;;;;;;-0.74;78.11;96878.31;10308047;28;101535;-65
2021/12/19 17:41:36;;;;;;;48.47;22.38;;;;;;;-0.74;77.24;96871.44;10303378;28;97650;-66
2021/12/19 17:46:39;;;;;;;43.72;21.75;;;;;;;-0.81;77.10;96874.34;10307106;28;97038;-66
2021/12/19 17:51:44;;;;;;;42.22;20.65;;;;;;;-0.87;77.96;96866.88;10301812;28;96969;-66
2021/12/19 17:56:46;;;;;;;45.03;22.40;;;;;;;-0.83;77.54;96876.97;10291514;28;98233;-66
2021/12/19 18:01:51;;;;;;;50.67;22.20;;;;;;;-0.84;77.78;96880.44;10308765;28;96732;-66
2021/12/19 18:06:56;;;;;;;46.03;22.50;;;;;;;-0.90;78.04;96876.38;10306441;28;96999;-66
2021/12/19 18:11:59;;;;;;;47.33;23.77;;;;;;;-0.91;77.56;96879.84;10314493;28;97677;-66
2021/12/19 18:17:02;;;;;;;45.03;21.40;;;;;;;-1.02;78.15;96871.75;10307332;28;96852;-66
2021/12/19 18:22:06;;;;;;;42.25;21.27;;;;;;;-1.08;78.56;96872.81;10302080;28;97097;-66
2021/12/19 18:27:10;;;;;;;51.97;23.47;;;;;;;-1.05;78.08;96876.16;10309813;28;97258;-65
2021/12/19 18:32:12;;;;;;;48.78;23.80;;;;;;;-1.11;77.98;96870.38;10304729;28;97056;-66
2021/12/19 18:37:23;;;;;;;49.05;22.75;;;;;;;-1.10;78.57;96869.50;10301739;28;98745;-66
2021/12/19 18:42:35;;;;;;;50.60;23.73;;;;;;;-1.07;78.75;96873.66;10298335;28;96860;-66
2021/12/19 18:47:50;;;;;;;46.75;23.58;;;;;;;-1.09;78.58;96863.44;10300927;28;98657;-66
2021/12/19 18:53:05;;;;;;;44.83;21.20;;;;;;;-1.02;77.75;96860.66;10308328;28;97586;-66
2021/12/19 18:58:13;;;;;;;44.47;21.75;;;;;;;-0.99;78.63;96855.41;10306912;28;100149;-66
2021/12/19 19:03:25;;;;;;;45.47;21.73;;;;;;;-0.88;78.61;96853.22;10303016;28;99066;-66
2021/12/19 19:08:30;;;;;;;47.95;22.40;;;;;;;-0.84;78.57;96854.78;10305932;28;97738;-66
2021/12/19 19:13:34;;;;;;;52.10;23.63;;;;;;;-0.91;78.73;96848.22;10317667;28;97005;-65
2021/12/19 19:18:37;;;;;;;48.90;23.05;;;;;;;-0.93;77.97;96855.16;10305823;28;97785;-65
2021/12/19 19:23:41;;;;;;;44.78;21.02;;;;;;;-0.93;77.79;96850.88;10288879;28;97248;-66
2021/12/19 19:28:44;;;;;;;45.58;21.73;;;;;;;-0.88;78.46;96845.53;10292201;28;97163;-65
2021/12/19 19:33:47;;;;;;;48.47;23.40;;;;;;;-0.85;78.70;96836.91;10290370;28;97499;-65
2021/12/19 19:39:05;;;;;;;50.35;22.48;;;;;;;-0.81;78.01;96839.25;10301826;28;97329;-65
2021/12/19 19:44:23;;;;;;;43.05;21.08;;;;;;;-0.80;77.89;96834.97;10290166;28;97062;-65
2021/12/19 19:49:26;;;;;;;45.80;21.73;;;;;;;-0.73;78.51;96831.25;10290364;28;96996;-66
2021/12/19 19:54:31;;;;;;;49.40;22.70;;;;;;;-0.66;78.08;96836.97;10281837;28;97994;-65
2021/12/19 19:59:34;;;;;;;40.63;20.40;;;;;;;-0.74;78.41;96832.13;10281405;28;101093;-65
2021/12/19 20:04:40;;;;;;;44.92;22.23;;;;;;;-0.74;78.69;96832.97;10286081;28;96959;-65
2021/12/19 20:09:44;;;;;;;43.90;22.83;;;;;;;-0.77;78.20;96835.69;10282095;28;98059;-65
2021/12/19 20:14:48;;;;;;;46.35;19.75;;;;;;;-0.81;79.06;96839.25;10288899;28;97369;-65
2021/12/19 20:19:51;;;;;;;42.03;20.05;;;;;;;-0.87;78.23;96836.09;10286925;28;97753;-65
2021/12/19 20:24:55;;;;;;;47.17;21.17;;;;;;;-0.90;78.44;96837.06;10282401;28;97608;-65
2021/12/19 20:29:59;;;;;;;45.75;21.55;;;;;;;-0.91;78.69;96825.13;10291758;28;98971;-65
2021/12/19 20:35:04;;;;;;;43.75;20.98;;;;;;;-0.91;78.89;96828.56;10290931;28;98952;-65
2021/12/19 20:40:10;;;;;;;43.03;21.52;;;;;;;-0.91;79.55;96832.81;10292150;28;98560;-65
2021/12/19 20:45:14;;;;;;;43.60;20.95;;;;;;;-0.90;78.74;96824.25;10287102;28;96888;-65
2021/12/19 20:50:19;;;;;;;41.17;19.55;;;;;;;-0.80;78.22;96817.03;10291563;28;97064;-65
2021/12/19 20:55:24;;;;;;;;;;;;;;;-0.76;79.14;96821.13;10295813;28;96871;-65
2021/12/19 21:00:28;;;;;;;39.60;19.05;;;;;;;-0.70;77.54;96820.88;10293179;28;96835;-64
2021/12/19 21:05:32;;;;;;;41.65;20.02;;;;;;;-0.72;77.56;96822.66;10307145;28;103322;-65
2021/12/19 21:10:38;;;;;;;43.37;20.93;;;;;;;-0.78;78.29;96810.91;10290424;28;98204;-65
2021/12/19 21:21:04;;;;;;;43.85;19.70;;;;;;;-0.76;77.97;96800.59;10295768;28;97085;-64
2021/12/19 21:26:08;;;;;;;45.40;21.88;;;;;;;-0.73;78.82;96801.28;10290693;28;97018;-65
2021/12/19 21:31:11;;;;;;;40.97;20.10;;;;;;;-0.75;77.78;96803.09;10299639;28;101169;-65
2021/12/19 21:41:37;;;;;;;39.58;19.33;;;;;;;-0.77;78.98;96799.75;10291366;28;99372;-64
2021/12/19 21:46:40;;;;;;;40.42;19.15;;;;;;;-0.88;78.79;96796.81;10303632;28;99041;-64
2021/12/19 21:51:43;;;;;;;42.45;20.95;;;;;;;-0.95;78.35;96785.13;10307896;28;97000;-65
2021/12/19 21:56:47;;;;;;;40.20;19.77;;;;;;;-0.99;78.71;96786.16;10284146;28;98821;-64
2021/12/19 22:01:51;;;;;;;43.30;19.75;;;;;;;-1.01;79.29;96786.22;10307750;28;96963;-65
2021/12/19 22:06:53;;;;;;;47.40;21.58;;;;;;;-1.03;78.41;96776.91;10292694;28;97198;-65
2021/12/19 22:12:05;;;;;;;45.50;21.40;;;;;;;-1.02;79.21;96778.59;10295665;28;98564;-65
2021/12/19 22:17:08;;;;;;;46.85;22.40;;;;;;;-1.03;78.07;96771.78;10293967;28;97056;-65
2021/12/19 22:22:11;;;;;;;45.72;20.27;;;;;;;-1.02;78.63;96779.41;10287633;28;96794;-64
2021/12/19 22:27:17;;;;;;;41.90;19.98;;;;;;;-1.03;78.03;96776.91;10278671;28;98595;-65
2021/12/19 22:32:20;;;;;;;40.78;20.05;;;;;;;-1.11;79.29;96772.94;10280756;28;98665;-65
2021/12/19 22:37:23;;;;;;;46.80;20.00;;;;;;;-1.16;78.67;96777.41;10289427;28;97975;-65
2021/12/19 22:42:27;;;;;;;41.90;20.63;;;;;;;-1.16;78.94;96776.59;10280259;28;97473;-65
2021/12/19 22:47:30;;;;;;;44.15;20.65;;;;;;;-1.12;79.16;96767.88;10284767;28;97129;-65
2021/12/19 22:52:33;;;;;;;44.30;19.65;;;;;;;-1.13;78.68;96761.91;10284767;28;100301;-65
2021/12/19 22:57:37;;;;;;;45.40;20.17;;;;;;;-1.15;79.26;96756.03;10289290;28;98024;-65
2021/12/19 23:02:42;;;;;;;41.85;19.15;;;;;;;-1.19;78.71;96757.03;10289452;28;97032;-64
2021/12/19 23:07:45;;;;;;;42.97;20.70;;;;;;;-1.18;78.35;96757.88;10285696;28;98260;-64
2021/12/19 23:12:51;;;;;;;38.38;18.17;;;;;;;-1.18;79.44;96747.63;10284993;28;96917;-65
2021/12/19 23:17:56;;;;;;;44.63;19.58;;;;;;;-1.26;79.46;96745.38;10287497;28;100629;-65
2021/12/19 23:23:00;;;;;;;39.20;18.70;;;;;;;-1.38;79.99;96741.56;10290497;28;100621;-65
2021/12/19 23:28:04;;;;;;;37.13;18.17;;;;;;;-1.41;78.94;96740.84;10289095;28;96819;-64
2021/12/19 23:38:40;;;;;;;38.63;18.08;;;;;;;-1.49;80.11;96738.63;10287684;28;97329;-64
2021/12/19 23:49:05;;;;;;;36.47;16.70;;;;;;;-1.63;80.28;96731.47;10284421;28;98431;-65
2021/12/19 23:54:08;;;;;;;41.83;17.10;;;;;;;-1.65;80.33;96723.03;10290349;28;96879;-65
2021/12/19 23:59:12;;;;;;;38.10;17.75;;;;;;;-1.59;80.14;96725.34;10288892;28;99374;-64
